Terminal Aerodrome Forecast
Issued by NWS

Home | Current Version | Previous Version | Text Only | Print | Product List | Glossary On
Versions: 1 2 3 4 5 6 7 8 9 10 11 12 13 14 15 16 17 18 19 20 21 22 23 24 25 26
000
FTUS43 KGLD 262320
TAFMCK
TAF
KMCK 262320Z 2700/2724 01013G19KT 3SM -SN BR SCT015 BKN035
      TEMPO 2700/2702 1SM -SN BR BKN015
     FM270200 33011KT 1SM -SN BR BKN008
      TEMPO 2704/2708 4SM -SHSN BKN025
     FM270800 32007KT P6SM SCT025 SCT050 BKN100
     FM271700 28008KT P6SM SKC=

USA.gov is the U.S. government's official web portal to all federal, state and local government web resources and services.